sensor_id;sensor_type;location;lat;lon;timestamp;P1;durP1;ratioP1;P2;durP2;ratioP2
2680;SDS011;1350;42.134;24.708;2024-03-17T00:00:24;34.77;;;24.20;;
2680;SDS011;1350;42.134;24.708;2024-03-17T00:02:51;35.08;;;23.60;;
2680;SDS011;1350;42.134;24.708;2024-03-17T00:05:18;31.02;;;23.05;;
2680;SDS011;1350;42.134;24.708;2024-03-17T00:07:46;35.77;;;25.33;;
2680;SDS011;1350;42.134;24.708;2024-03-17T00:10:13;42.58;;;25.48;;
2680;SDS011;1350;42.134;24.708;2024-03-17T00:12:40;30.50;;;23.55;;
2680;SDS011;1350;42.134;24.708;2024-03-17T00:15:08;35.80;;;25.63;;
2680;SDS011;1350;42.134;24.708;2024-03-17T00:17:34;41.42;;;28.45;;
2680;SDS011;1350;42.134;24.708;2024-03-17T00:20:01;40.22;;;27.00;;
2680;SDS011;1350;42.134;24.708;2024-03-17T00:22:33;41.55;;;29.45;;
2680;SDS011;1350;42.134;24.708;2024-03-17T00:25:06;40.20;;;28.90;;
2680;SDS011;1350;42.134;24.708;2024-03-17T00:27:32;52.40;;;28.33;;
2680;SDS011;1350;42.134;24.708;2024-03-17T00:30:01;40.00;;;28.30;;
2680;SDS011;1350;42.134;24.708;2024-03-17T00:32:28;41.10;;;28.30;;
2680;SDS011;1350;42.134;24.708;2024-03-17T00:34:55;34.85;;;26.05;;
2680;SDS011;1350;42.134;24.708;2024-03-17T00:37:21;29.87;;;23.30;;
2680;SDS011;1350;42.134;24.708;2024-03-17T00:39:48;38.22;;;25.33;;
2680;SDS011;1350;42.134;24.708;2024-03-17T00:42:16;34.60;;;23.92;;
2680;SDS011;1350;42.134;24.708;2024-03-17T00:44:44;39.13;;;24.85;;
2680;SDS011;1350;42.134;24.708;2024-03-17T00:47:10;35.42;;;24.52;;
2680;SDS011;1350;42.134;24.708;2024-03-17T00:49:37;30.15;;;22.45;;
2680;SDS011;1350;42.134;24.708;2024-03-17T00:52:03;39.92;;;26.25;;
2680;SDS011;1350;42.134;24.708;2024-03-17T00:54:30;39.72;;;25.95;;
2680;SDS011;1350;42.134;24.708;2024-03-17T00:56:55;37.93;;;23.70;;
2680;SDS011;1350;42.134;24.708;2024-03-17T00:59:24;37.38;;;27.60;;
2680;SDS011;1350;42.134;24.708;2024-03-17T01:01:50;47.78;;;26.20;;
2680;SDS011;1350;42.134;24.708;2024-03-17T01:04:17;35.58;;;24.65;;
2680;SDS011;1350;42.134;24.708;2024-03-17T01:06:43;41.60;;;24.57;;
2680;SDS011;1350;42.134;24.708;2024-03-17T01:09:09;28.30;;;20.50;;
2680;SDS011;1350;42.134;24.708;2024-03-17T01:11:44;29.02;;;18.33;;
2680;SDS011;1350;42.134;24.708;2024-03-17T01:14:11;25.98;;;16.25;;
2680;SDS011;1350;42.134;24.708;2024-03-17T01:16:37;25.73;;;17.42;;
2680;SDS011;1350;42.134;24.708;2024-03-17T01:19:04;26.50;;;18.42;;
2680;SDS011;1350;42.134;24.708;2024-03-17T01:21:30;22.70;;;15.87;;
2680;SDS011;1350;42.134;24.708;2024-03-17T01:23:57;23.50;;;15.57;;
2680;SDS011;1350;42.134;24.708;2024-03-17T01:26:23;21.30;;;16.00;;
2680;SDS011;1350;42.134;24.708;2024-03-17T01:28:51;27.73;;;15.68;;
2680;SDS011;1350;42.134;24.708;2024-03-17T01:31:17;21.55;;;14.85;;
2680;SDS011;1350;42.134;24.708;2024-03-17T01:33:44;24.35;;;16.42;;
2680;SDS011;1350;42.134;24.708;2024-03-17T01:36:12;23.33;;;16.60;;
2680;SDS011;1350;42.134;24.708;2024-03-17T01:38:39;23.40;;;17.33;;
2680;SDS011;1350;42.134;24.708;2024-03-17T01:41:04;22.13;;;16.70;;
2680;SDS011;1350;42.134;24.708;2024-03-17T01:43:32;30.27;;;17.95;;
2680;SDS011;1350;42.134;24.708;2024-03-17T01:45:59;27.93;;;19.30;;
2680;SDS011;1350;42.134;24.708;2024-03-17T01:48:27;28.48;;;21.30;;
2680;SDS011;1350;42.134;24.708;2024-03-17T01:50:55;25.05;;;18.98;;
2680;SDS011;1350;42.134;24.708;2024-03-17T01:53:23;34.33;;;20.83;;
2680;SDS011;1350;42.134;24.708;2024-03-17T01:55:52;25.55;;;19.02;;
2680;SDS011;1350;42.134;24.708;2024-03-17T01:58:22;25.25;;;18.40;;
2680;SDS011;1350;42.134;24.708;2024-03-17T02:00:51;27.00;;;18.33;;
2680;SDS011;1350;42.134;24.708;2024-03-17T02:03:19;26.40;;;17.67;;
2680;SDS011;1350;42.134;24.708;2024-03-17T02:05:45;28.00;;;20.05;;
2680;SDS011;1350;42.134;24.708;2024-03-17T02:08:13;22.88;;;17.48;;
2680;SDS011;1350;42.134;24.708;2024-03-17T02:10:40;25.52;;;18.40;;
2680;SDS011;1350;42.134;24.708;2024-03-17T02:13:06;29.70;;;20.17;;
2680;SDS011;1350;42.134;24.708;2024-03-17T02:15:33;27.40;;;18.45;;
2680;SDS011;1350;42.134;24.708;2024-03-17T02:17:59;23.05;;;17.35;;
2680;SDS011;1350;42.134;24.708;2024-03-17T02:20:27;28.48;;;18.35;;
2680;SDS011;1350;42.134;24.708;2024-03-17T02:23:09;28.33;;;19.60;;
2680;SDS011;1350;42.134;24.708;2024-03-17T02:25:36;24.77;;;18.55;;
2680;SDS011;1350;42.134;24.708;2024-03-17T02:28:03;28.67;;;19.60;;
2680;SDS011;1350;42.134;24.708;2024-03-17T02:30:31;25.45;;;18.98;;
2680;SDS011;1350;42.134;24.708;2024-03-17T02:32:56;23.10;;;16.93;;
2680;SDS011;1350;42.134;24.708;2024-03-17T02:35:24;26.30;;;19.60;;
2680;SDS011;1350;42.134;24.708;2024-03-17T02:37:50;26.92;;;18.75;;
2680;SDS011;1350;42.134;24.708;2024-03-17T02:40:19;24.42;;;18.05;;
2680;SDS011;1350;42.134;24.708;2024-03-17T02:42:45;23.00;;;17.60;;
2680;SDS011;1350;42.134;24.708;2024-03-17T02:45:12;25.20;;;18.40;;
2680;SDS011;1350;42.134;24.708;2024-03-17T02:47:39;27.08;;;18.67;;
2680;SDS011;1350;42.134;24.708;2024-03-17T02:50:07;25.23;;;17.58;;
2680;SDS011;1350;42.134;24.708;2024-03-17T02:52:34;28.60;;;19.58;;
2680;SDS011;1350;42.134;24.708;2024-03-17T02:55:01;23.05;;;17.52;;
2680;SDS011;1350;42.134;24.708;2024-03-17T02:57:29;25.38;;;17.42;;
2680;SDS011;1350;42.134;24.708;2024-03-17T02:59:57;24.77;;;18.58;;
2680;SDS011;1350;42.134;24.708;2024-03-17T03:02:24;31.65;;;19.30;;
2680;SDS011;1350;42.134;24.708;2024-03-17T03:04:51;26.98;;;18.80;;
2680;SDS011;1350;42.134;24.708;2024-03-17T03:07:18;26.10;;;18.08;;
2680;SDS011;1350;42.134;24.708;2024-03-17T03:09:45;26.05;;;18.48;;
2680;SDS011;1350;42.134;24.708;2024-03-17T03:12:12;27.02;;;19.70;;
2680;SDS011;1350;42.134;24.708;2024-03-17T03:14:40;26.95;;;17.92;;
2680;SDS011;1350;42.134;24.708;2024-03-17T03:17:07;26.50;;;19.02;;
2680;SDS011;1350;42.134;24.708;2024-03-17T03:19:35;28.10;;;18.77;;
2680;SDS011;1350;42.134;24.708;2024-03-17T03:22:02;25.65;;;17.45;;
2680;SDS011;1350;42.134;24.708;2024-03-17T03:24:28;25.33;;;18.30;;
2680;SDS011;1350;42.134;24.708;2024-03-17T03:26:55;22.25;;;16.55;;
2680;SDS011;1350;42.134;24.708;2024-03-17T03:29:22;23.58;;;18.23;;
2680;SDS011;1350;42.134;24.708;2024-03-17T03:31:51;25.67;;;16.30;;
2680;SDS011;1350;42.134;24.708;2024-03-17T03:34:18;25.88;;;18.45;;
2680;SDS011;1350;42.134;24.708;2024-03-17T03:36:44;26.42;;;17.27;;
2680;SDS011;1350;42.134;24.708;2024-03-17T03:39:11;25.42;;;17.25;;
2680;SDS011;1350;42.134;24.708;2024-03-17T03:41:39;28.73;;;18.10;;
2680;SDS011;1350;42.134;24.708;2024-03-17T03:44:06;25.42;;;18.02;;
2680;SDS011;1350;42.134;24.708;2024-03-17T03:46:35;25.33;;;17.55;;
2680;SDS011;1350;42.134;24.708;2024-03-17T03:49:04;26.23;;;18.63;;
2680;SDS011;1350;42.134;24.708;2024-03-17T03:51:31;25.17;;;17.80;;
2680;SDS011;1350;42.134;24.708;2024-03-17T03:53:57;28.13;;;17.77;;
2680;SDS011;1350;42.134;24.708;2024-03-17T03:56:24;24.65;;;18.88;;
2680;SDS011;1350;42.134;24.708;2024-03-17T03:58:52;26.13;;;17.98;;
2680;SDS011;1350;42.134;24.708;2024-03-17T04:01:18;28.83;;;19.02;;
2680;SDS011;1350;42.134;24.708;2024-03-17T04:03:47;29.10;;;19.00;;
2680;SDS011;1350;42.134;24.708;2024-03-17T04:06:16;26.03;;;17.50;;
2680;SDS011;1350;42.134;24.708;2024-03-17T04:08:43;24.50;;;17.67;;
2680;SDS011;1350;42.134;24.708;2024-03-17T04:11:10;26.75;;;17.35;;
2680;SDS011;1350;42.134;24.708;2024-03-17T04:13:37;36.67;;;18.27;;
2680;SDS011;1350;42.134;24.708;2024-03-17T04:16:05;23.45;;;17.40;;
2680;SDS011;1350;42.134;24.708;2024-03-17T04:18:32;28.67;;;17.55;;
2680;SDS011;1350;42.134;24.708;2024-03-17T04:21:01;29.20;;;18.45;;
2680;SDS011;1350;42.134;24.708;2024-03-17T04:23:31;28.83;;;18.35;;
2680;SDS011;1350;42.134;24.708;2024-03-17T04:25:58;27.63;;;17.15;;
2680;SDS011;1350;42.134;24.708;2024-03-17T04:28:26;26.50;;;20.05;;
2680;SDS011;1350;42.134;24.708;2024-03-17T04:30:53;24.05;;;18.15;;
2680;SDS011;1350;42.134;24.708;2024-03-17T04:33:29;24.98;;;19.20;;
2680;SDS011;1350;42.134;24.708;2024-03-17T04:35:56;24.60;;;17.80;;
2680;SDS011;1350;42.134;24.708;2024-03-17T04:38:23;27.25;;;18.90;;
2680;SDS011;1350;42.134;24.708;2024-03-17T04:40:52;23.50;;;16.85;;
2680;SDS011;1350;42.134;24.708;2024-03-17T04:43:24;25.17;;;17.40;;
2680;SDS011;1350;42.134;24.708;2024-03-17T04:45:58;21.65;;;16.00;;
2680;SDS011;1350;42.134;24.708;2024-03-17T04:48:26;32.80;;;17.63;;
2680;SDS011;1350;42.134;24.708;2024-03-17T04:50:53;24.10;;;18.38;;
2680;SDS011;1350;42.134;24.708;2024-03-17T04:53:20;23.52;;;17.80;;
2680;SDS011;1350;42.134;24.708;2024-03-17T04:55:47;26.85;;;16.92;;
2680;SDS011;1350;42.134;24.708;2024-03-17T04:58:15;26.38;;;17.55;;
2680;SDS011;1350;42.134;24.708;2024-03-17T05:00:42;23.05;;;15.95;;
2680;SDS011;1350;42.134;24.708;2024-03-17T05:03:09;25.58;;;16.67;;
2680;SDS011;1350;42.134;24.708;2024-03-17T05:05:36;24.48;;;17.80;;
2680;SDS011;1350;42.134;24.708;2024-03-17T05:08:03;23.10;;;16.50;;
2680;SDS011;1350;42.134;24.708;2024-03-17T05:10:30;26.48;;;18.88;;
2680;SDS011;1350;42.134;24.708;2024-03-17T05:12:57;24.55;;;17.10;;
2680;SDS011;1350;42.134;24.708;2024-03-17T05:15:26;23.63;;;16.17;;
2680;SDS011;1350;42.134;24.708;2024-03-17T05:17:53;26.02;;;19.02;;
2680;SDS011;1350;42.134;24.708;2024-03-17T05:20:20;27.00;;;18.40;;
2680;SDS011;1350;42.134;24.708;2024-03-17T05:22:48;26.17;;;16.85;;
2680;SDS011;1350;42.134;24.708;2024-03-17T05:25:15;24.38;;;16.48;;
2680;SDS011;1350;42.134;24.708;2024-03-17T05:27:42;22.67;;;18.15;;
2680;SDS011;1350;42.134;24.708;2024-03-17T05:30:10;25.15;;;18.80;;
2680;SDS011;1350;42.134;24.708;2024-03-17T05:32:39;31.23;;;19.42;;
2680;SDS011;1350;42.134;24.708;2024-03-17T05:35:06;29.40;;;19.45;;
2680;SDS011;1350;42.134;24.708;2024-03-17T05:37:34;30.88;;;19.30;;
2680;SDS011;1350;42.134;24.708;2024-03-17T05:40:01;32.83;;;19.63;;
2680;SDS011;1350;42.134;24.708;2024-03-17T05:42:27;30.30;;;21.00;;
2680;SDS011;1350;42.134;24.708;2024-03-17T05:44:54;27.42;;;20.10;;
2680;SDS011;1350;42.134;24.708;2024-03-17T05:47:21;26.73;;;20.33;;
2680;SDS011;1350;42.134;24.708;2024-03-17T05:49:50;29.92;;;18.65;;
2680;SDS011;1350;42.134;24.708;2024-03-17T05:52:17;29.25;;;20.00;;
2680;SDS011;1350;42.134;24.708;2024-03-17T05:54:44;26.33;;;18.95;;
2680;SDS011;1350;42.134;24.708;2024-03-17T05:57:11;29.30;;;19.02;;
2680;SDS011;1350;42.134;24.708;2024-03-17T05:59:39;26.88;;;18.85;;
2680;SDS011;1350;42.134;24.708;2024-03-17T06:02:06;31.00;;;20.30;;
2680;SDS011;1350;42.134;24.708;2024-03-17T06:04:35;29.13;;;18.92;;
2680;SDS011;1350;42.134;24.708;2024-03-17T06:07:05;39.40;;;21.95;;
2680;SDS011;1350;42.134;24.708;2024-03-17T06:09:32;29.27;;;21.73;;
2680;SDS011;1350;42.134;24.708;2024-03-17T06:11:59;29.05;;;20.13;;
2680;SDS011;1350;42.134;24.708;2024-03-17T06:14:26;33.58;;;20.92;;
2680;SDS011;1350;42.134;24.708;2024-03-17T06:16:53;31.83;;;21.48;;
2680;SDS011;1350;42.134;24.708;2024-03-17T06:19:20;40.35;;;22.77;;
2680;SDS011;1350;42.134;24.708;2024-03-17T06:21:48;33.17;;;23.58;;
2680;SDS011;1350;42.134;24.708;2024-03-17T06:24:17;40.15;;;24.48;;
2680;SDS011;1350;42.134;24.708;2024-03-17T06:26:44;30.60;;;23.35;;
2680;SDS011;1350;42.134;24.708;2024-03-17T06:29:12;39.22;;;23.15;;
2680;SDS011;1350;42.134;24.708;2024-03-17T06:31:40;38.55;;;27.10;;
2680;SDS011;1350;42.134;24.708;2024-03-17T06:34:07;35.03;;;25.15;;
2680;SDS011;1350;42.134;24.708;2024-03-17T06:36:34;37.60;;;25.27;;
2680;SDS011;1350;42.134;24.708;2024-03-17T06:39:00;31.08;;;23.85;;
2680;SDS011;1350;42.134;24.708;2024-03-17T06:41:29;38.50;;;26.25;;
2680;SDS011;1350;42.134;24.708;2024-03-17T06:43:56;33.58;;;23.17;;
2680;SDS011;1350;42.134;24.708;2024-03-17T06:46:24;30.23;;;23.23;;
2680;SDS011;1350;42.134;24.708;2024-03-17T06:48:51;28.40;;;21.73;;
2680;SDS011;1350;42.134;24.708;2024-03-17T06:51:23;30.90;;;23.33;;
2680;SDS011;1350;42.134;24.708;2024-03-17T06:53:50;33.08;;;22.92;;
2680;SDS011;1350;42.134;24.708;2024-03-17T06:56:17;29.83;;;21.90;;
2680;SDS011;1350;42.134;24.708;2024-03-17T06:58:45;30.98;;;23.65;;
2680;SDS011;1350;42.134;24.708;2024-03-17T07:01:12;28.73;;;22.00;;
2680;SDS011;1350;42.134;24.708;2024-03-17T07:03:39;34.17;;;23.75;;
2680;SDS011;1350;42.134;24.708;2024-03-17T07:06:06;38.53;;;23.38;;
2680;SDS011;1350;42.134;24.708;2024-03-17T07:08:33;30.10;;;24.25;;
2680;SDS011;1350;42.134;24.708;2024-03-17T07:11:01;34.50;;;24.67;;
2680;SDS011;1350;42.134;24.708;2024-03-17T07:13:30;35.40;;;25.23;;
2680;SDS011;1350;42.134;24.708;2024-03-17T07:15:59;29.67;;;22.33;;
2680;SDS011;1350;42.134;24.708;2024-03-17T07:18:27;29.20;;;21.27;;
2680;SDS011;1350;42.134;24.708;2024-03-17T07:20:56;29.80;;;21.83;;
2680;SDS011;1350;42.134;24.708;2024-03-17T07:23:23;29.77;;;21.63;;
2680;SDS011;1350;42.134;24.708;2024-03-17T07:25:54;41.00;;;20.10;;
2680;SDS011;1350;42.134;24.708;2024-03-17T07:28:21;26.90;;;21.17;;
2680;SDS011;1350;42.134;24.708;2024-03-17T07:30:49;28.93;;;20.33;;
2680;SDS011;1350;42.134;24.708;2024-03-17T07:33:18;23.70;;;20.33;;
2680;SDS011;1350;42.134;24.708;2024-03-17T07:35:47;24.20;;;18.73;;
2680;SDS011;1350;42.134;24.708;2024-03-17T07:38:15;26.63;;;19.70;;
2680;SDS011;1350;42.134;24.708;2024-03-17T07:40:43;22.92;;;18.42;;
2680;SDS011;1350;42.134;24.708;2024-03-17T07:43:10;26.13;;;21.57;;
2680;SDS011;1350;42.134;24.708;2024-03-17T07:45:37;28.50;;;20.38;;
2680;SDS011;1350;42.134;24.708;2024-03-17T07:48:04;33.20;;;20.30;;
2680;SDS011;1350;42.134;24.708;2024-03-17T07:50:33;22.00;;;18.80;;
2680;SDS011;1350;42.134;24.708;2024-03-17T07:53:00;24.70;;;18.37;;
2680;SDS011;1350;42.134;24.708;2024-03-17T07:55:29;25.27;;;19.52;;
2680;SDS011;1350;42.134;24.708;2024-03-17T07:57:56;23.53;;;18.23;;
2680;SDS011;1350;42.134;24.708;2024-03-17T08:00:24;25.07;;;18.13;;
2680;SDS011;1350;42.134;24.708;2024-03-17T08:02:51;25.50;;;17.93;;
2680;SDS011;1350;42.134;24.708;2024-03-17T08:05:18;23.10;;;17.65;;
2680;SDS011;1350;42.134;24.708;2024-03-17T08:07:47;21.17;;;18.27;;
2680;SDS011;1350;42.134;24.708;2024-03-17T08:10:14;27.40;;;18.97;;
2680;SDS011;1350;42.134;24.708;2024-03-17T08:12:43;22.92;;;18.00;;
2680;SDS011;1350;42.134;24.708;2024-03-17T08:15:10;27.20;;;18.40;;
2680;SDS011;1350;42.134;24.708;2024-03-17T08:17:37;21.85;;;18.20;;
2680;SDS011;1350;42.134;24.708;2024-03-17T08:20:05;22.93;;;18.33;;
2680;SDS011;1350;42.134;24.708;2024-03-17T08:22:33;27.17;;;18.90;;
2680;SDS011;1350;42.134;24.708;2024-03-17T08:25:01;22.70;;;17.80;;
2680;SDS011;1350;42.134;24.708;2024-03-17T08:27:29;21.55;;;18.80;;
2680;SDS011;1350;42.134;24.708;2024-03-17T08:29:56;23.70;;;19.07;;
2680;SDS011;1350;42.134;24.708;2024-03-17T08:33:32;29.87;;;20.87;;
2680;SDS011;1350;42.134;24.708;2024-03-17T08:35:59;22.13;;;18.00;;
2680;SDS011;1350;42.134;24.708;2024-03-17T08:42:07;22.50;;;19.13;;
2680;SDS011;1350;42.134;24.708;2024-03-17T08:45:03;30.50;;;18.63;;
2680;SDS011;1350;42.134;24.708;2024-03-17T08:47:50;23.43;;;19.50;;
2680;SDS011;1350;42.134;24.708;2024-03-17T08:53:18;24.43;;;20.33;;
2680;SDS011;1350;42.134;24.708;2024-03-17T08:59:22;25.08;;;20.75;;
2680;SDS011;1350;42.134;24.708;2024-03-17T09:02:07;25.07;;;21.03;;
2680;SDS011;1350;42.134;24.708;2024-03-17T09:04:40;30.73;;;20.00;;
2680;SDS011;1350;42.134;24.708;2024-03-17T09:07:07;47.50;;;25.30;;
2680;SDS011;1350;42.134;24.708;2024-03-17T09:09:34;25.10;;;20.67;;
2680;SDS011;1350;42.134;24.708;2024-03-17T09:12:01;22.35;;;17.15;;
2680;SDS011;1350;42.134;24.708;2024-03-17T09:14:30;24.00;;;18.40;;
2680;SDS011;1350;42.134;24.708;2024-03-17T09:16:58;24.57;;;17.77;;
2680;SDS011;1350;42.134;24.708;2024-03-17T09:19:25;23.10;;;18.60;;
2680;SDS011;1350;42.134;24.708;2024-03-17T09:21:54;47.47;;;22.27;;
2680;SDS011;1350;42.134;24.708;2024-03-17T09:24:21;40.87;;;36.60;;
2680;SDS011;1350;42.134;24.708;2024-03-17T09:26:50;25.57;;;18.83;;
2680;SDS011;1350;42.134;24.708;2024-03-17T09:29:18;38.77;;;26.43;;
2680;SDS011;1350;42.134;24.708;2024-03-17T09:31:46;82.67;;;68.23;;
2680;SDS011;1350;42.134;24.708;2024-03-17T09:34:14;28.83;;;21.57;;
2680;SDS011;1350;42.134;24.708;2024-03-17T09:36:41;26.60;;;18.40;;
2680;SDS011;1350;42.134;24.708;2024-03-17T09:39:09;33.63;;;17.97;;
2680;SDS011;1350;42.134;24.708;2024-03-17T09:41:39;38.40;;;19.97;;
2680;SDS011;1350;42.134;24.708;2024-03-17T09:44:10;28.37;;;19.27;;
2680;SDS011;1350;42.134;24.708;2024-03-17T09:46:39;21.60;;;18.00;;
2680;SDS011;1350;42.134;24.708;2024-03-17T09:49:10;25.80;;;18.07;;
2680;SDS011;1350;42.134;24.708;2024-03-17T09:51:42;23.60;;;17.73;;
2680;SDS011;1350;42.134;24.708;2024-03-17T09:54:15;22.50;;;15.40;;
2680;SDS011;1350;42.134;24.708;2024-03-17T09:56:44;21.60;;;18.30;;
2680;SDS011;1350;42.134;24.708;2024-03-17T09:59:11;32.53;;;19.67;;
2680;SDS011;1350;42.134;24.708;2024-03-17T10:01:38;20.47;;;17.40;;
2680;SDS011;1350;42.134;24.708;2024-03-17T10:04:05;21.80;;;15.87;;
2680;SDS011;1350;42.134;24.708;2024-03-17T10:06:44;16.70;;;12.13;;
2680;SDS011;1350;42.134;24.708;2024-03-17T10:09:14;22.60;;;13.17;;
2680;SDS011;1350;42.134;24.708;2024-03-17T10:11:46;15.00;;;11.87;;
2680;SDS011;1350;42.134;24.708;2024-03-17T10:14:16;14.97;;;13.30;;
2680;SDS011;1350;42.134;24.708;2024-03-17T10:16:44;21.67;;;12.43;;
2680;SDS011;1350;42.134;24.708;2024-03-17T10:19:11;23.10;;;14.80;;
2680;SDS011;1350;42.134;24.708;2024-03-17T10:21:42;16.23;;;13.20;;
2680;SDS011;1350;42.134;24.708;2024-03-17T10:24:10;26.90;;;15.80;;
2680;SDS011;1350;42.134;24.708;2024-03-17T10:26:41;18.65;;;14.73;;
2680;SDS011;1350;42.134;24.708;2024-03-17T10:29:20;19.03;;;13.00;;
2680;SDS011;1350;42.134;24.708;2024-03-17T10:31:49;15.53;;;11.77;;
2680;SDS011;1350;42.134;24.708;2024-03-17T10:34:17;18.17;;;13.60;;
2680;SDS011;1350;42.134;24.708;2024-03-17T10:36:46;19.60;;;13.00;;
2680;SDS011;1350;42.134;24.708;2024-03-17T10:39:22;18.60;;;12.33;;
2680;SDS011;1350;42.134;24.708;2024-03-17T10:41:55;18.05;;;12.18;;
2680;SDS011;1350;42.134;24.708;2024-03-17T10:44:24;14.00;;;10.73;;
2680;SDS011;1350;42.134;24.708;2024-03-17T10:46:52;16.97;;;11.20;;
2680;SDS011;1350;42.134;24.708;2024-03-17T10:49:23;14.80;;;11.27;;
2680;SDS011;1350;42.134;24.708;2024-03-17T10:51:57;17.10;;;10.47;;
2680;SDS011;1350;42.134;24.708;2024-03-17T10:54:25;12.23;;;10.73;;
2680;SDS011;1350;42.134;24.708;2024-03-17T10:56:54;17.33;;;12.55;;
2680;SDS011;1350;42.134;24.708;2024-03-17T10:59:25;13.40;;;10.23;;
2680;SDS011;1350;42.134;24.708;2024-03-17T11:02:02;17.80;;;11.30;;
2680;SDS011;1350;42.134;24.708;2024-03-17T11:04:31;14.53;;;10.20;;
2680;SDS011;1350;42.134;24.708;2024-03-17T11:07:01;13.50;;;10.80;;
2680;SDS011;1350;42.134;24.708;2024-03-17T11:09:29;13.63;;;10.40;;
2680;SDS011;1350;42.134;24.708;2024-03-17T11:11:56;15.00;;;11.30;;
2680;SDS011;1350;42.134;24.708;2024-03-17T11:14:24;14.83;;;11.73;;
2680;SDS011;1350;42.134;24.708;2024-03-17T11:16:51;28.23;;;11.87;;
2680;SDS011;1350;42.134;24.708;2024-03-17T11:19:18;16.57;;;10.77;;
2680;SDS011;1350;42.134;24.708;2024-03-17T11:21:45;16.03;;;10.23;;
2680;SDS011;1350;42.134;24.708;2024-03-17T11:24:19;11.15;;;8.68;;
2680;SDS011;1350;42.134;24.708;2024-03-17T11:26:47;11.17;;;8.60;;
2680;SDS011;1350;42.134;24.708;2024-03-17T11:29:27;14.53;;;9.03;;
2680;SDS011;1350;42.134;24.708;2024-03-17T11:31:55;20.53;;;9.50;;
2680;SDS011;1350;42.134;24.708;2024-03-17T11:34:26;13.50;;;9.50;;
2680;SDS011;1350;42.134;24.708;2024-03-17T11:36:56;12.37;;;10.37;;
2680;SDS011;1350;42.134;24.708;2024-03-17T11:42:21;12.93;;;9.20;;
2680;SDS011;1350;42.134;24.708;2024-03-17T11:44:59;11.83;;;8.20;;
2680;SDS011;1350;42.134;24.708;2024-03-17T11:47:35;11.97;;;8.33;;
2680;SDS011;1350;42.134;24.708;2024-03-17T11:50:04;14.50;;;9.00;;
2680;SDS011;1350;42.134;24.708;2024-03-17T11:52:33;14.00;;;7.47;;
2680;SDS011;1350;42.134;24.708;2024-03-17T11:55:02;11.45;;;7.28;;
2680;SDS011;1350;42.134;24.708;2024-03-17T11:57:28;9.43;;;7.80;;
2680;SDS011;1350;42.134;24.708;2024-03-17T11:59:56;13.00;;;9.57;;
2680;SDS011;1350;42.134;24.708;2024-03-17T12:02:23;13.20;;;9.20;;
2680;SDS011;1350;42.134;24.708;2024-03-17T12:04:51;11.27;;;8.80;;
2680;SDS011;1350;42.134;24.708;2024-03-17T12:07:18;12.00;;;7.70;;
2680;SDS011;1350;42.134;24.708;2024-03-17T12:09:48;10.63;;;8.10;;
2680;SDS011;1350;42.134;24.708;2024-03-17T12:12:18;14.50;;;9.10;;
2680;SDS011;1350;42.134;24.708;2024-03-17T12:14:45;12.53;;;7.93;;
2680;SDS011;1350;42.134;24.708;2024-03-17T12:17:14;14.97;;;8.47;;
2680;SDS011;1350;42.134;24.708;2024-03-17T12:19:44;12.80;;;10.38;;
2680;SDS011;1350;42.134;24.708;2024-03-17T12:22:14;10.67;;;8.33;;
2680;SDS011;1350;42.134;24.708;2024-03-17T12:24:47;14.00;;;9.47;;
2680;SDS011;1350;42.134;24.708;2024-03-17T12:27:16;15.17;;;11.13;;
2680;SDS011;1350;42.134;24.708;2024-03-17T12:29:46;13.37;;;9.47;;
2680;SDS011;1350;42.134;24.708;2024-03-17T12:32:14;15.35;;;9.95;;
2680;SDS011;1350;42.134;24.708;2024-03-17T12:34:42;13.50;;;9.17;;
2680;SDS011;1350;42.134;24.708;2024-03-17T12:37:13;12.35;;;9.00;;
2680;SDS011;1350;42.134;24.708;2024-03-17T12:39:44;11.37;;;8.43;;
2680;SDS011;1350;42.134;24.708;2024-03-17T12:42:10;10.93;;;8.27;;
2680;SDS011;1350;42.134;24.708;2024-03-17T12:44:43;9.80;;;6.93;;
2680;SDS011;1350;42.134;24.708;2024-03-17T12:47:14;41.97;;;13.53;;
2680;SDS011;1350;42.134;24.708;2024-03-17T12:49:45;14.20;;;7.03;;
2680;SDS011;1350;42.134;24.708;2024-03-17T12:52:17;9.93;;;6.43;;
2680;SDS011;1350;42.134;24.708;2024-03-17T12:54:45;12.88;;;6.68;;
2680;SDS011;1350;42.134;24.708;2024-03-17T12:57:42;9.73;;;6.67;;
2680;SDS011;1350;42.134;24.708;2024-03-17T13:00:28;13.07;;;7.73;;
2680;SDS011;1350;42.134;24.708;2024-03-17T13:02:59;13.03;;;6.10;;
2680;SDS011;1350;42.134;24.708;2024-03-17T13:05:26;11.70;;;6.50;;
2680;SDS011;1350;42.134;24.708;2024-03-17T13:07:54;8.40;;;5.93;;
2680;SDS011;1350;42.134;24.708;2024-03-17T13:10:22;11.60;;;6.93;;
2680;SDS011;1350;42.134;24.708;2024-03-17T13:12:57;11.80;;;7.63;;
2680;SDS011;1350;42.134;24.708;2024-03-17T13:15:28;12.80;;;6.90;;
2680;SDS011;1350;42.134;24.708;2024-03-17T13:17:57;10.38;;;7.93;;
2680;SDS011;1350;42.134;24.708;2024-03-17T13:20:24;10.33;;;7.10;;
2680;SDS011;1350;42.134;24.708;2024-03-17T13:22:51;12.60;;;7.45;;
2680;SDS011;1350;42.134;24.708;2024-03-17T13:25:19;10.70;;;7.10;;
2680;SDS011;1350;42.134;24.708;2024-03-17T13:27:49;10.63;;;6.97;;
2680;SDS011;1350;42.134;24.708;2024-03-17T13:30:17;14.85;;;8.10;;
2680;SDS011;1350;42.134;24.708;2024-03-17T13:32:49;10.10;;;7.37;;
2680;SDS011;1350;42.134;24.708;2024-03-17T13:35:22;19.08;;;6.30;;
2680;SDS011;1350;42.134;24.708;2024-03-17T13:37:50;14.68;;;7.88;;
2680;SDS011;1350;42.134;24.708;2024-03-17T13:40:19;11.10;;;8.00;;
2680;SDS011;1350;42.134;24.708;2024-03-17T13:42:48;11.60;;;7.40;;
2680;SDS011;1350;42.134;24.708;2024-03-17T13:45:16;12.37;;;7.60;;
2680;SDS011;1350;42.134;24.708;2024-03-17T13:47:46;10.77;;;6.47;;
2680;SDS011;1350;42.134;24.708;2024-03-17T13:50:16;10.67;;;8.27;;
2680;SDS011;1350;42.134;24.708;2024-03-17T13:52:43;10.38;;;7.22;;
2680;SDS011;1350;42.134;24.708;2024-03-17T13:55:12;12.63;;;7.83;;
2680;SDS011;1350;42.134;24.708;2024-03-17T13:57:42;9.67;;;7.33;;
2680;SDS011;1350;42.134;24.708;2024-03-17T14:00:10;12.07;;;7.20;;
2680;SDS011;1350;42.134;24.708;2024-03-17T14:02:41;10.97;;;7.90;;
2680;SDS011;1350;42.134;24.708;2024-03-17T14:05:10;9.57;;;6.45;;
2680;SDS011;1350;42.134;24.708;2024-03-17T14:07:39;14.43;;;6.80;;
2680;SDS011;1350;42.134;24.708;2024-03-17T14:10:06;16.63;;;12.83;;
2680;SDS011;1350;42.134;24.708;2024-03-17T14:12:35;22.83;;;7.75;;
2680;SDS011;1350;42.134;24.708;2024-03-17T14:15:03;19.77;;;7.13;;
2680;SDS011;1350;42.134;24.708;2024-03-17T14:17:31;10.03;;;8.00;;
2680;SDS011;1350;42.134;24.708;2024-03-17T14:19:58;9.53;;;7.13;;
2680;SDS011;1350;42.134;24.708;2024-03-17T14:22:26;9.60;;;6.73;;
2680;SDS011;1350;42.134;24.708;2024-03-17T14:24:53;12.37;;;7.17;;
2680;SDS011;1350;42.134;24.708;2024-03-17T14:27:20;9.93;;;6.70;;
2680;SDS011;1350;42.134;24.708;2024-03-17T14:29:47;10.50;;;6.60;;
2680;SDS011;1350;42.134;24.708;2024-03-17T14:32:15;29.70;;;10.40;;
2680;SDS011;1350;42.134;24.708;2024-03-17T14:34:42;20.27;;;8.20;;
2680;SDS011;1350;42.134;24.708;2024-03-17T14:37:09;13.30;;;7.43;;
2680;SDS011;1350;42.134;24.708;2024-03-17T14:39:37;10.77;;;6.60;;
2680;SDS011;1350;42.134;24.708;2024-03-17T14:42:05;18.88;;;9.90;;
2680;SDS011;1350;42.134;24.708;2024-03-17T14:44:33;11.70;;;8.30;;
2680;SDS011;1350;42.134;24.708;2024-03-17T14:47:02;10.80;;;8.23;;
2680;SDS011;1350;42.134;24.708;2024-03-17T14:49:29;29.80;;;12.10;;
2680;SDS011;1350;42.134;24.708;2024-03-17T14:51:57;13.43;;;8.40;;
2680;SDS011;1350;42.134;24.708;2024-03-17T14:54:24;12.27;;;8.17;;
2680;SDS011;1350;42.134;24.708;2024-03-17T14:56:53;11.27;;;8.27;;
2680;SDS011;1350;42.134;24.708;2024-03-17T14:59:20;14.57;;;8.30;;